THY3ED LTFM-LKPR
Flight info
| Callsign | THY3ED |
|---|---|
| Flight time | N/A |
| Altitude | 34000 |
| Route | IBLAX P727 BGS L622 GONGO DCT KOMAN DCT BUXLE DCT BUDOP DCT AMRAX DCT LALES DCT KATQA DCT TUMKA DCT VLM |
| Aircraft | A321/M-SDE3FGHIRWY/LB1 |
Departure
| Time | N/A |
|---|---|
| Airport | İstanbul Airport (LTFM) |
Arrival
| Time | 2026-04-30 21:29 |
|---|---|
| Airport | Václav Havel Airport Prague (LKPR) |
| Time | Latitude | Longitude | Altitude | Speed | Heading |
|---|---|---|---|---|---|
| 2026-04-30 20:26 | 46.02696 | 22.94725 | 34353 ft | 431 kts | 311° |
| 2026-04-30 20:26 | 46.04631 | 22.91427 | 34351 ft | 431 kts | 311° |
| 2026-04-30 20:27 | 46.12382 | 22.78225 | 34352 ft | 432 kts | 311° |
| 2026-04-30 20:28 | 46.20134 | 22.64961 | 34352 ft | 433 kts | 311° |
| 2026-04-30 20:30 | 46.29812 | 22.48303 | 34342 ft | 433 kts | 311° |
| 2026-04-30 20:31 | 46.41409 | 22.28212 | 34343 ft | 434 kts | 311° |
| 2026-04-30 20:32 | 46.46923 | 22.17800 | 34329 ft | 438 kts | 300° |
| 2026-04-30 20:32 | 46.49545 | 22.09790 | 34323 ft | 440 kts | 297° |
| 2026-04-30 20:33 | 46.53450 | 21.97715 | 34324 ft | 441 kts | 297° |
| 2026-04-30 20:34 | 46.57340 | 21.85596 | 34317 ft | 442 kts | 297° |
| 2026-04-30 20:35 | 46.61224 | 21.73414 | 34322 ft | 443 kts | 297° |
| 2026-04-30 20:35 | 46.65103 | 21.61206 | 34332 ft | 443 kts | 297° |
| 2026-04-30 20:36 | 46.67706 | 21.53064 | 34326 ft | 443 kts | 301° |
| 2026-04-30 20:36 | 46.71301 | 21.45909 | 34324 ft | 437 kts | 317° |
| 2026-04-30 20:37 | 46.73455 | 21.42787 | 34327 ft | 437 kts | 317° |
| 2026-04-30 20:37 | 46.77763 | 21.36511 | 34330 ft | 438 kts | 317° |
| 2026-04-30 20:38 | 46.82069 | 21.30210 | 34341 ft | 439 kts | 317° |
| 2026-04-30 20:38 | 46.86370 | 21.23885 | 34328 ft | 439 kts | 317° |
| 2026-04-30 20:39 | 46.92799 | 21.14395 | 34341 ft | 440 kts | 317° |
| 2026-04-30 20:40 | 46.98557 | 21.05867 | 34352 ft | 440 kts | 317° |
| 2026-04-30 20:40 | 47.02858 | 20.99475 | 34356 ft | 440 kts | 317° |
| 2026-04-30 20:41 | 47.09312 | 20.89874 | 34350 ft | 441 kts | 317° |
| 2026-04-30 20:41 | 47.13615 | 20.83465 | 34362 ft | 441 kts | 317° |
| 2026-04-30 20:42 | 47.17910 | 20.77032 | 34360 ft | 441 kts | 317° |
| 2026-04-30 20:43 | 47.24344 | 20.67344 | 34374 ft | 441 kts | 317° |
| 2026-04-30 20:43 | 47.28640 | 20.60883 | 34372 ft | 442 kts | 317° |
| 2026-04-30 20:44 | 47.35085 | 20.51176 | 34372 ft | 442 kts | 317° |
| 2026-04-30 20:45 | 47.43659 | 20.38164 | 34347 ft | 443 kts | 317° |
| 2026-04-30 20:45 | 47.47941 | 20.31647 | 34332 ft | 447 kts | 318° |
| 2026-04-30 20:46 | 47.56643 | 20.18326 | 34338 ft | 453 kts | 317° |
| 2026-04-30 20:47 | 47.63213 | 20.08229 | 34338 ft | 454 kts | 318° |
| 2026-04-30 20:48 | 47.69804 | 19.98087 | 34364 ft | 456 kts | 318° |
| 2026-04-30 20:48 | 47.74198 | 19.91289 | 34376 ft | 456 kts | 318° |
| 2026-04-30 20:49 | 47.78589 | 19.84476 | 34386 ft | 456 kts | 318° |
| 2026-04-30 20:50 | 47.85179 | 19.74241 | 34377 ft | 457 kts | 319° |
| 2026-04-30 20:50 | 47.89564 | 19.67393 | 34384 ft | 457 kts | 319° |
| 2026-04-30 20:51 | 47.93950 | 19.60540 | 34388 ft | 457 kts | 319° |
| 2026-04-30 20:51 | 48.00525 | 19.50224 | 34393 ft | 457 kts | 318° |
| 2026-04-30 20:52 | 48.04901 | 19.43336 | 34377 ft | 457 kts | 319° |
| 2026-04-30 20:53 | 48.11144 | 19.32482 | 34390 ft | 463 kts | 311° |
| 2026-04-30 20:53 | 48.14895 | 19.24638 | 34399 ft | 463 kts | 311° |
| 2026-04-30 20:54 | 48.20519 | 19.12863 | 34376 ft | 463 kts | 312° |
| 2026-04-30 20:55 | 48.26148 | 19.01089 | 34401 ft | 463 kts | 312° |
| 2026-04-30 20:55 | 48.29886 | 18.93210 | 34404 ft | 463 kts | 312° |
| 2026-04-30 20:56 | 48.35478 | 18.81359 | 34409 ft | 463 kts | 312° |
| 2026-04-30 20:57 | 48.41068 | 18.69491 | 34396 ft | 464 kts | 312° |
| 2026-04-30 20:57 | 48.44790 | 18.61563 | 34402 ft | 464 kts | 312° |
| 2026-04-30 20:58 | 48.50368 | 18.49648 | 34425 ft | 464 kts | 312° |
| 2026-04-30 20:58 | 48.54068 | 18.41680 | 34395 ft | 464 kts | 313° |
| 2026-04-30 20:59 | 48.59619 | 18.29702 | 34411 ft | 464 kts | 312° |
| 2026-04-30 21:00 | 48.67010 | 18.13682 | 34428 ft | 463 kts | 310° |
| 2026-04-30 21:01 | 48.70696 | 18.05672 | 33214 ft | 463 kts | 307° |
| 2026-04-30 21:01 | 48.72529 | 18.01675 | 34394 ft | 463 kts | 313° |
| 2026-04-30 21:02 | 48.78031 | 17.89648 | 34389 ft | 463 kts | 313° |
| 2026-04-30 21:02 | 48.81689 | 17.81611 | 34391 ft | 463 kts | 313° |
| 2026-04-30 21:03 | 48.85342 | 17.73559 | 34385 ft | 463 kts | 313° |
| 2026-04-30 21:03 | 48.88548 | 17.64940 | 34410 ft | 473 kts | 305° |
| 2026-04-30 21:04 | 48.91515 | 17.56021 | 34428 ft | 473 kts | 305° |
| 2026-04-30 21:04 | 48.95955 | 17.42604 | 34426 ft | 474 kts | 305° |
| 2026-04-30 21:05 | 48.98911 | 17.33643 | 34430 ft | 474 kts | 305° |
| 2026-04-30 21:05 | 49.01856 | 17.24663 | 34430 ft | 474 kts | 305° |
| 2026-04-30 21:06 | 49.04723 | 17.15592 | 34430 ft | 476 kts | 303° |
| 2026-04-30 21:06 | 49.07496 | 17.06420 | 34436 ft | 477 kts | 303° |
| 2026-04-30 21:07 | 49.10252 | 16.97230 | 34397 ft | 476 kts | 304° |
| 2026-04-30 21:07 | 49.13028 | 16.88038 | 34410 ft | 477 kts | 304° |
| 2026-04-30 21:08 | 49.15822 | 16.78841 | 34046 ft | 479 kts | 304° |
| 2026-04-30 21:08 | 49.17214 | 16.74246 | 33731 ft | 477 kts | 304° |
| 2026-04-30 21:08 | 49.18610 | 16.69632 | 33332 ft | 480 kts | 304° |
| 2026-04-30 21:09 | 49.20017 | 16.64979 | 32381 ft | 484 kts | 304° |
| 2026-04-30 21:09 | 49.21425 | 16.60294 | 31463 ft | 486 kts | 304° |
| 2026-04-30 21:09 | 49.22835 | 16.55582 | 31023 ft | 489 kts | 305° |
| 2026-04-30 21:09 | 49.24255 | 16.50836 | 30408 ft | 492 kts | 305° |
| 2026-04-30 21:10 | 49.25680 | 16.46065 | 29792 ft | 494 kts | 304° |
| 2026-04-30 21:10 | 49.27103 | 16.41271 | 29181 ft | 495 kts | 304° |
| 2026-04-30 21:10 | 49.28526 | 16.36466 | 28576 ft | 496 kts | 304° |
| 2026-04-30 21:10 | 49.29948 | 16.31653 | 27965 ft | 496 kts | 303° |
| 2026-04-30 21:11 | 49.31370 | 16.26835 | 27357 ft | 496 kts | 303° |
| 2026-04-30 21:11 | 49.32792 | 16.22012 | 26750 ft | 497 kts | 303° |
| 2026-04-30 21:11 | 49.34211 | 16.17189 | 26148 ft | 496 kts | 302° |
| 2026-04-30 21:11 | 49.35628 | 16.12369 | 25544 ft | 496 kts | 302° |
| 2026-04-30 21:12 | 49.37027 | 16.07592 | 25128 ft | 483 kts | 302° |
| 2026-04-30 21:12 | 49.38366 | 16.02980 | 24987 ft | 462 kts | 302° |
| 2026-04-30 21:12 | 49.39633 | 15.98577 | 24146 ft | 443 kts | 302° |
| 2026-04-30 21:12 | 49.40873 | 15.94309 | 23003 ft | 432 kts | 303° |
| 2026-04-30 21:13 | 49.42160 | 15.90223 | 22718 ft | 416 kts | 305° |
| 2026-04-30 21:13 | 49.43468 | 15.86352 | 22475 ft | 403 kts | 306° |
| 2026-04-30 21:13 | 49.44788 | 15.82602 | 22044 ft | 395 kts | 307° |
| 2026-04-30 21:13 | 49.46095 | 15.78933 | 21618 ft | 388 kts | 307° |
| 2026-04-30 21:14 | 49.47373 | 15.75319 | 21204 ft | 382 kts | 306° |
| 2026-04-30 21:14 | 49.48619 | 15.71742 | 20788 ft | 377 kts | 306° |
| 2026-04-30 21:14 | 49.49832 | 15.68200 | 20374 ft | 372 kts | 305° |
| 2026-04-30 21:14 | 49.51021 | 15.64698 | 19971 ft | 367 kts | 304° |
| 2026-04-30 21:15 | 49.52191 | 15.61236 | 19529 ft | 363 kts | 304° |
| 2026-04-30 21:15 | 49.53347 | 15.57806 | 19108 ft | 359 kts | 304° |
| 2026-04-30 21:15 | 49.54489 | 15.54410 | 18684 ft | 356 kts | 304° |
| 2026-04-30 21:15 | 49.55622 | 15.51041 | 18227 ft | 353 kts | 304° |
| 2026-04-30 21:16 | 49.56749 | 15.47699 | 17801 ft | 350 kts | 304° |
| 2026-04-30 21:16 | 49.57867 | 15.44381 | 17368 ft | 348 kts | 304° |
| 2026-04-30 21:16 | 49.58978 | 15.41081 | 16927 ft | 346 kts | 303° |
| 2026-04-30 21:16 | 49.60078 | 15.37800 | 16505 ft | 344 kts | 303° |
| 2026-04-30 21:17 | 49.61167 | 15.34533 | 16089 ft | 341 kts | 303° |
| 2026-04-30 21:17 | 49.62249 | 15.31290 | 15663 ft | 339 kts | 303° |
| 2026-04-30 21:17 | 49.63323 | 15.28068 | 15241 ft | 337 kts | 302° |
| 2026-04-30 21:17 | 49.64388 | 15.24868 | 14816 ft | 334 kts | 302° |
| 2026-04-30 21:18 | 49.65445 | 15.21692 | 14405 ft | 332 kts | 302° |
| 2026-04-30 21:18 | 49.66497 | 15.18536 | 13959 ft | 329 kts | 302° |
| 2026-04-30 21:18 | 49.67539 | 15.15400 | 13533 ft | 327 kts | 302° |
| 2026-04-30 21:18 | 49.68572 | 15.12277 | 13115 ft | 326 kts | 302° |
| 2026-04-30 21:19 | 49.69601 | 15.09168 | 12699 ft | 324 kts | 302° |
| 2026-04-30 21:19 | 49.70708 | 15.06165 | 12285 ft | 319 kts | 310° |
| 2026-04-30 21:19 | 49.72045 | 15.03468 | 11865 ft | 316 kts | 312° |
| 2026-04-30 21:19 | 49.73394 | 15.00796 | 11474 ft | 315 kts | 312° |
| 2026-04-30 21:20 | 49.74282 | 14.99028 | 11206 ft | 314 kts | 312° |
| 2026-04-30 21:20 | 49.75613 | 14.96365 | 10876 ft | 309 kts | 312° |
| 2026-04-30 21:20 | 49.76900 | 14.93778 | 10695 ft | 299 kts | 312° |
| 2026-04-30 21:20 | 49.78158 | 14.91248 | 10411 ft | 294 kts | 312° |
| 2026-04-30 21:21 | 49.79404 | 14.88749 | 10273 ft | 293 kts | 312° |
| 2026-04-30 21:21 | 49.80650 | 14.86251 | 10133 ft | 293 kts | 312° |
| 2026-04-30 21:21 | 49.83131 | 14.81234 | 9533 ft | 294 kts | 311° |
| 2026-04-30 21:22 | 49.84368 | 14.78717 | 9128 ft | 292 kts | 311° |
| 2026-04-30 21:22 | 49.87995 | 14.71324 | 7669 ft | 281 kts | 310° |
| 2026-04-30 21:23 | 49.89173 | 14.68927 | 7219 ft | 278 kts | 310° |
| 2026-04-30 21:23 | 49.90344 | 14.66547 | 6766 ft | 277 kts | 310° |
| 2026-04-30 21:23 | 49.92664 | 14.61804 | 5850 ft | 272 kts | 309° |
| 2026-04-30 21:24 | 49.93722 | 14.59634 | 5467 ft | 259 kts | 309° |
| 2026-04-30 21:24 | 49.94765 | 14.57502 | 5173 ft | 240 kts | 309° |
| 2026-04-30 21:24 | 49.95746 | 14.55499 | 4952 ft | 229 kts | 309° |
| 2026-04-30 21:24 | 49.96707 | 14.53537 | 4814 ft | 228 kts | 309° |
| 2026-04-30 21:25 | 49.98611 | 14.49638 | 4624 ft | 221 kts | 309° |
| 2026-04-30 21:25 | 49.99527 | 14.47759 | 4406 ft | 209 kts | 309° |
| 2026-04-30 21:25 | 50.00390 | 14.45988 | 4125 ft | 201 kts | 310° |
| 2026-04-30 21:26 | 50.02032 | 14.42619 | 3605 ft | 192 kts | 310° |
| 2026-04-30 21:26 | 50.02835 | 14.40969 | 3341 ft | 190 kts | 310° |
| 2026-04-30 21:27 | 50.04333 | 14.37883 | 2840 ft | 164 kts | 311° |
| 2026-04-30 21:27 | 50.05004 | 14.36506 | 2624 ft | 157 kts | 311° |
| 2026-04-30 21:27 | 50.05656 | 14.35175 | 2415 ft | 153 kts | 311° |
| 2026-04-30 21:28 | 50.06931 | 14.32544 | 2016 ft | 151 kts | 311° |
| 2026-04-30 21:28 | 50.07557 | 14.31237 | 1757 ft | 150 kts | 310° |
| 2026-04-30 21:28 | 50.08799 | 14.28672 | 1358 ft | 147 kts | 308° |
| 2026-04-30 21:29 | 50.09410 | 14.27414 | 1211 ft | 139 kts | 307° |
| 2026-04-30 21:29 | 50.10383 | 14.25655 | 1184 ft | 30 kts | 356° |
| 2026-04-30 21:30 | 50.10670 | 14.25862 | 1173 ft | 25 kts | 34° |
| 2026-04-30 21:31 | 50.11089 | 14.26312 | 1165 ft | 20 kts | 46° |
| 2026-04-30 21:31 | 50.11212 | 14.26701 | 1166 ft | 20 kts | 65° |
| 2026-04-30 21:32 | 50.11224 | 14.26954 | 1171 ft | 10 kts | 153° |
| 2026-04-30 21:32 | 50.11157 | 14.27003 | 1173 ft | 11 kts | 154° |
| 2026-04-30 21:32 | 50.11084 | 14.27058 | 1171 ft | 12 kts | 154° |
| 2026-04-30 21:32 | 50.11028 | 14.27095 | 1173 ft | 5 kts | 173° |
| 2026-04-30 21:33 | 50.11005 | 14.27055 | 1171 ft | 6 kts | 243° |
| 2026-04-30 21:33 | 50.10996 | 14.27024 | 1171 ft | 0 kts | 245° |
| 2026-04-30 21:37 | 50.06632 | 14.33158 | 2128 ft | 152 kts | 310° |
| 2026-04-30 21:37 | 50.07269 | 14.31845 | 1883 ft | 150 kts | 309° |
| 2026-04-30 21:37 | 50.07876 | 14.30580 | 1652 ft | 149 kts | 310° |
| 2026-04-30 21:37 | 50.08469 | 14.29356 | 1446 ft | 146 kts | 307° |
| 2026-04-30 21:38 | 50.09054 | 14.28148 | 1271 ft | 146 kts | 308° |
| 2026-04-30 21:38 | 50.09614 | 14.26997 | 1206 ft | 124 kts | 307° |